Time;durP1;ratioP1;P1;durP2;ratioP2;P2;SDS_P1;SDS_P2;PMS_P1;PMS_P2;Temp;Humidity;BMP_temperature;BMP_pressure;BME280_temperature;BME280_humidity;BME280_pressure;Samples;Min_cycle;Max_cycle;Signal;HPM_P1;HPM_P2
2022/02/20 00:00:41;;;;;;;2.60;1.60;;;;;;;26.25;27.65;96553.00;5013927;28;20030;-33
2022/02/20 00:03:07;;;;;;;2.90;1.90;;;;;;;26.24;27.69;96549.56;5016149;28;20037;-30
2022/02/20 00:05:32;;;;;;;2.00;1.63;;;;;;;26.23;27.55;96548.69;5013602;28;20533;-33
2022/02/20 00:07:58;;;;;;;6.88;1.80;;;;;;;26.23;27.76;96560.97;5011200;28;20025;-32
2022/02/20 00:10:23;;;;;;;4.47;1.85;;;;;;;26.23;27.71;96568.84;5011478;28;20064;-30
2022/02/20 00:12:49;;;;;;;4.20;1.60;;;;;;;26.23;27.65;96569.72;5015165;28;20051;-30
2022/02/20 00:15:14;;;;;;;2.67;1.67;;;;;;;26.24;27.54;96570.56;5005831;28;20030;-31
2022/02/20 00:17:40;;;;;;;5.80;3.03;;;;;;;26.23;27.49;96574.97;5002571;28;20048;-35
2022/02/20 00:20:06;;;;;;;5.55;2.30;;;;;;;26.22;27.38;96575.06;5004122;28;20040;-31
2022/02/20 00:22:31;;;;;;;3.97;1.88;;;;;;;26.20;27.28;96572.50;5003646;28;20033;-31
2022/02/20 00:24:57;;;;;;;2.90;1.70;;;;;;;26.20;27.46;96569.88;5003628;28;20033;-30
2022/02/20 00:27:23;;;;;;;3.97;1.80;;;;;;;26.20;27.40;96567.25;4999768;28;20534;-31
2022/02/20 00:29:49;;;;;;;2.20;1.52;;;;;;;26.21;27.55;96565.50;5002792;28;20037;-34
2022/02/20 00:32:14;;;;;;;2.85;1.35;;;;;;;26.20;27.44;96556.75;5000039;28;20116;-31
2022/02/20 00:34:40;;;;;;;2.05;1.20;;;;;;;26.19;27.54;96554.22;5002839;28;20416;-31
2022/02/20 00:37:05;;;;;;;2.03;1.55;;;;;;;26.20;27.54;96559.38;5004223;28;20029;-33
2022/02/20 00:39:31;;;;;;;1.98;1.75;;;;;;;26.20;27.56;96555.94;5006795;28;20026;-30
2022/02/20 00:41:57;;;;;;;2.33;1.33;;;;;;;26.20;27.58;96555.94;5012846;28;20029;-30
2022/02/20 00:44:23;;;;;;;5.57;1.50;;;;;;;26.21;27.43;96565.50;5013095;28;20025;-30
2022/02/20 00:46:48;;;;;;;1.73;1.15;;;;;;;26.20;27.57;96554.13;5010951;28;20384;-33
2022/02/20 00:49:14;;;;;;;2.33;1.20;;;;;;;26.21;27.51;96570.75;5011198;28;20420;-30
2022/02/20 00:51:39;;;;;;;3.17;1.10;;;;;;;26.21;27.58;96555.81;5011159;28;20519;-30
2022/02/20 00:54:08;;;;;;;3.05;1.20;;;;;;;26.20;27.52;96564.63;5009170;28;20037;-31
2022/02/20 00:56:35;;;;;;;3.20;1.55;;;;;;;26.20;27.60;96561.19;5011342;28;21453;-30
2022/02/20 00:59:00;;;;;;;2.03;1.10;;;;;;;26.21;27.71;96568.13;5010035;28;20467;-30
2022/02/20 01:01:26;;;;;;;3.17;1.20;;;;;;;26.20;27.39;96569.06;5009171;28;20095;-35
2022/02/20 01:03:52;;;;;;;3.15;1.40;;;;;;;26.19;27.42;96570.81;5014858;28;20041;-34
2022/02/20 01:06:17;;;;;;;1.70;1.20;;;;;;;26.20;27.63;96584.81;5011172;28;20045;-30
2022/02/20 01:08:43;;;;;;;1.60;1.00;;;;;;;26.20;27.59;96579.56;5006648;28;20036;-32
2022/02/20 01:11:08;;;;;;;2.65;1.15;;;;;;;26.19;27.60;96583.09;5002776;28;20174;-32
2022/02/20 01:13:33;;;;;;;1.55;1.00;;;;;;;26.20;27.45;96579.56;5003504;28;20585;-30
2022/02/20 01:15:59;;;;;;;2.20;1.25;;;;;;;26.17;27.54;96584.97;4998930;28;20045;-33
2022/02/20 01:18:24;;;;;;;1.42;0.93;;;;;;;26.19;27.42;96589.22;5003789;28;20042;-32
2022/02/20 01:20:50;;;;;;;1.67;1.05;;;;;;;26.21;27.50;96597.00;5000947;28;20029;-32
2022/02/20 01:23:15;;;;;;;0.80;0.80;;;;;;;26.19;27.63;96598.84;5001156;28;20044;-32
2022/02/20 01:25:40;;;;;;;1.58;1.00;;;;;;;26.20;27.50;96597.94;5004504;28;20042;-34
2022/02/20 01:28:06;;;;;;;1.92;1.10;;;;;;;26.20;27.59;96597.94;5002071;28;20083;-34
2022/02/20 01:30:31;;;;;;;1.98;0.85;;;;;;;26.18;27.50;96599.81;5006128;28;20108;-33
2022/02/20 01:32:57;;;;;;;1.02;0.85;;;;;;;26.20;27.48;96605.81;5005610;28;20033;-35
2022/02/20 01:35:22;;;;;;;0.90;0.80;;;;;;;26.18;27.60;96594.56;5009713;28;20040;-30
2022/02/20 01:37:47;;;;;;;2.70;1.17;;;;;;;26.19;27.44;96596.22;5001027;28;20083;-29
2022/02/20 01:40:13;;;;;;;1.33;0.93;;;;;;;26.19;27.64;96593.59;5001236;28;20091;-36
2022/02/20 01:42:38;;;;;;;1.05;0.88;;;;;;;26.17;27.54;96585.84;5001329;28;20030;-30
2022/02/20 01:45:04;;;;;;;2.92;0.90;;;;;;;26.18;27.52;96594.56;5008110;28;20037;-34
2022/02/20 01:47:30;;;;;;;1.25;1.00;;;;;;;26.17;27.61;96593.72;5007925;28;20037;-29
2022/02/20 01:49:56;;;;;;;1.38;0.70;;;;;;;26.17;27.49;96574.47;4989643;28;20022;-32
2022/02/20 01:52:22;;;;;;;1.02;0.73;;;;;;;26.17;27.62;96574.47;5006802;28;20034;-30
2022/02/20 01:54:48;;;;;;;1.48;0.75;;;;;;;26.16;27.50;96575.41;5006524;28;20037;-30
2022/02/20 01:57:13;;;;;;;0.82;0.82;;;;;;;26.18;27.62;96584.03;5005204;28;20168;-33
2022/02/20 01:59:39;;;;;;;1.95;1.05;;;;;;;26.16;27.53;96580.69;4991174;28;20083;-30
2022/02/20 02:02:04;;;;;;;2.17;0.90;;;;;;;26.16;27.55;96584.13;5008881;28;20037;-30
2022/02/20 02:04:30;;;;;;;1.10;0.90;;;;;;;26.16;27.68;96588.56;5006904;28;20538;-32
2022/02/20 02:06:55;;;;;;;1.40;0.80;;;;;;;26.15;27.59;96586.84;5005432;28;20068;-35
2022/02/20 02:09:21;;;;;;;1.60;0.88;;;;;;;26.15;27.59;96581.59;5004365;28;20703;-32
2022/02/20 02:11:47;;;;;;;0.77;0.70;;;;;;;26.15;27.63;96589.47;5007942;28;20029;-34
2022/02/20 02:14:13;;;;;;;0.85;0.68;;;;;;;26.15;27.61;96589.47;5005356;28;20535;-30
2022/02/20 02:16:38;;;;;;;1.33;0.90;;;;;;;26.14;27.67;96590.41;5003987;28;20933;-30
2022/02/20 02:19:04;;;;;;;1.27;0.70;;;;;;;26.15;27.60;96592.09;5007769;28;20017;-34
2022/02/20 02:21:29;;;;;;;1.58;0.80;;;;;;;26.14;27.55;96590.41;5006442;28;20519;-30
2022/02/20 02:23:55;;;;;;;1.23;0.70;;;;;;;26.14;27.65;96596.50;5006354;28;20041;-31
2022/02/20 02:26:20;;;;;;;1.58;0.55;;;;;;;26.13;27.67;96586.94;5004202;28;20033;-31
2022/02/20 02:28:46;;;;;;;1.80;0.77;;;;;;;26.14;27.42;96579.91;4988802;28;20052;-30
2022/02/20 02:31:12;;;;;;;1.58;0.77;;;;;;;26.13;27.73;96586.09;5005362;28;20245;-31
2022/02/20 02:33:38;;;;;;;1.00;0.55;;;;;;;26.13;27.67;96583.47;5006247;28;20028;-31
2022/02/20 02:36:05;;;;;;;0.73;0.65;;;;;;;26.13;27.65;96584.31;5004908;28;20033;-34
2022/02/20 02:38:30;;;;;;;1.08;0.60;;;;;;;26.13;27.64;96578.22;5006325;28;20045;-31
2022/02/20 02:40:57;;;;;;;0.95;0.70;;;;;;;26.13;27.55;96570.34;5002562;28;20198;-31
2022/02/20 02:43:22;;;;;;;0.85;0.65;;;;;;;26.11;27.65;96575.69;5005158;28;20605;-31
2022/02/20 02:45:48;;;;;;;1.40;0.60;;;;;;;26.12;27.60;96584.41;5006253;28;20156;-30
2022/02/20 02:48:13;;;;;;;0.93;0.50;;;;;;;26.10;27.59;96587.94;5004149;28;20025;-33
2022/02/20 02:50:38;;;;;;;1.15;0.70;;;;;;;26.12;27.71;96584.41;5005710;28;20029;-31
2022/02/20 02:53:05;;;;;;;1.05;0.60;;;;;;;26.11;27.66;96596.69;5004154;28;20037;-32
2022/02/20 02:55:31;;;;;;;1.42;0.70;;;;;;;26.09;27.47;96594.13;5003286;28;20022;-30
2022/02/20 02:57:56;;;;;;;0.95;0.60;;;;;;;26.10;27.65;96595.81;5005107;28;20027;-29
2022/02/20 03:00:21;;;;;;;0.45;0.45;;;;;;;26.09;27.73;96594.13;4987835;28;20026;-35
2022/02/20 03:02:47;;;;;;;0.47;0.47;;;;;;;26.09;27.71;96594.13;5005802;28;22894;-31
2022/02/20 03:05:12;;;;;;;0.60;0.60;;;;;;;26.09;27.75;96586.25;5002005;28;20519;-31
2022/02/20 03:07:38;;;;;;;0.50;0.50;;;;;;;26.08;27.71;96592.47;5002518;28;20036;-31
2022/02/20 03:10:03;;;;;;;0.85;0.50;;;;;;;26.09;27.63;96594.13;5004630;28;20040;-32
2022/02/20 03:12:29;;;;;;;1.05;0.60;;;;;;;26.09;27.71;96599.41;5005631;28;20686;-32
2022/02/20 03:14:54;;;;;;;2.13;0.43;;;;;;;26.09;27.79;96609.91;5004496;28;20044;-33
2022/02/20 03:17:20;;;;;;;0.45;0.40;;;;;;;26.08;27.58;96608.22;4968453;28;20088;-33
2022/02/20 03:19:45;;;;;;;0.55;0.50;;;;;;;26.07;27.65;96611.78;5004155;28;20040;-31
2022/02/20 03:22:11;;;;;;;0.98;0.60;;;;;;;26.08;27.75;96608.22;5004491;28;20037;-31
2022/02/20 03:24:36;;;;;;;0.38;0.38;;;;;;;26.08;27.71;96607.34;5007412;28;20440;-35
2022/02/20 03:27:02;;;;;;;0.80;0.30;;;;;;;26.07;27.67;96606.53;5001447;28;20029;-31
2022/02/20 03:29:27;;;;;;;0.47;0.47;;;;;;;26.07;27.66;96617.03;5002461;28;20030;-32
2022/02/20 03:31:52;;;;;;;0.40;0.40;;;;;;;26.07;27.90;96613.56;5012587;28;20048;-31
2022/02/20 03:34:18;;;;;;;0.93;0.52;;;;;;;26.06;27.80;96612.72;5005757;28;20048;-36
2022/02/20 03:36:43;;;;;;;1.17;0.40;;;;;;;26.07;27.60;96617.03;4987343;28;20095;-32
2022/02/20 03:39:09;;;;;;;0.63;0.40;;;;;;;26.06;27.77;96610.09;5004570;28;20040;-31
2022/02/20 03:41:34;;;;;;;7.57;1.30;;;;;;;26.06;27.64;96619.75;5003764;28;20033;-33
2022/02/20 03:43:59;;;;;;;1.75;0.75;;;;;;;26.05;27.59;96618.88;5002205;28;20041;-31
2022/02/20 03:46:25;;;;;;;0.65;0.40;;;;;;;26.04;27.71;96616.34;5004851;28;20528;-31
2022/02/20 03:48:50;;;;;;;1.70;0.60;;;;;;;26.04;27.75;96622.44;5005627;28;20040;-34
2022/02/20 03:51:15;;;;;;;1.27;0.50;;;;;;;26.04;27.81;96622.44;5006705;28;20037;-33
2022/02/20 03:53:42;;;;;;;2.45;0.52;;;;;;;26.05;27.68;96625.94;5005232;28;20792;-32
2022/02/20 03:56:07;;;;;;;0.55;0.43;;;;;;;26.04;27.80;96627.69;5002279;28;20041;-30
2022/02/20 03:58:33;;;;;;;0.68;0.43;;;;;;;26.03;27.63;96620.75;5003869;28;20430;-30
2022/02/20 04:00:58;;;;;;;2.47;0.60;;;;;;;26.05;27.73;96628.56;5005243;28;22769;-30
2022/02/20 04:03:24;;;;;;;2.92;0.60;;;;;;;26.04;27.80;96626.84;5005367;28;20087;-34
2022/02/20 04:05:49;;;;;;;0.60;0.50;;;;;;;26.05;27.75;96637.25;5001754;28;20802;-30
2022/02/20 04:08:15;;;;;;;0.40;0.40;;;;;;;26.04;27.72;96637.34;5003154;28;20025;-34
2022/02/20 04:10:40;;;;;;;0.60;0.40;;;;;;;26.04;27.80;96638.19;5003770;28;20045;-32
2022/02/20 04:13:05;;;;;;;0.50;0.25;;;;;;;26.04;27.78;96643.47;5001036;28;20578;-30
2022/02/20 04:15:31;;;;;;;0.85;0.45;;;;;;;26.03;27.69;96641.78;5011187;28;20029;-29
2022/02/20 04:17:56;;;;;;;3.92;0.45;;;;;;;26.03;27.82;96652.28;5009580;28;20417;-31
2022/02/20 04:20:22;;;;;;;0.25;0.20;;;;;;;26.03;27.84;96652.28;5010148;28;20030;-31
2022/02/20 04:22:47;;;;;;;0.35;0.22;;;;;;;26.02;27.73;96653.22;5011470;28;20032;-32
2022/02/20 04:25:13;;;;;;;0.22;0.22;;;;;;;26.04;27.74;96663.59;5011398;28;20095;-32
2022/02/20 04:27:39;;;;;;;2.90;0.50;;;;;;;26.03;27.93;96668.03;5010763;28;20036;-31
2022/02/20 04:30:07;;;;;;;0.63;0.40;;;;;;;26.03;27.67;96662.78;5009186;28;20032;-33
2022/02/20 04:32:33;;;;;;;1.02;0.40;;;;;;;26.03;27.81;96669.78;5011402;28;20033;-33
2022/02/20 04:34:59;;;;;;;0.85;0.50;;;;;;;26.03;27.78;96668.03;5010210;28;20576;-33
2022/02/20 04:37:24;;;;;;;0.30;0.30;;;;;;;26.04;27.89;96671.47;5013624;28;20111;-30
2022/02/20 04:39:50;;;;;;;0.25;0.25;;;;;;;26.02;27.89;96671.59;5013475;28;20041;-30
2022/02/20 04:42:15;;;;;;;0.25;0.20;;;;;;;26.03;27.72;96678.53;5013134;28;20032;-35
2022/02/20 04:44:41;;;;;;;0.77;0.50;;;;;;;26.03;27.93;96682.94;5012085;28;20094;-35
2022/02/20 04:47:06;;;;;;;0.20;0.20;;;;;;;26.03;27.85;96682.94;5004380;28;20359;-33
2022/02/20 04:49:31;;;;;;;0.30;0.30;;;;;;;26.02;27.82;96689.13;5003140;28;20029;-31
2022/02/20 04:51:57;;;;;;;0.30;0.20;;;;;;;26.01;27.89;96685.63;5005049;28;20068;-31
2022/02/20 04:54:22;;;;;;;0.70;0.30;;;;;;;26.01;27.81;96698.75;5001749;28;20034;-31
2022/02/20 04:56:47;;;;;;;2.15;0.22;;;;;;;26.01;27.89;96696.13;4997933;28;20432;-32
2022/02/20 04:59:13;;;;;;;1.15;0.40;;;;;;;26.01;27.83;96690.88;4999432;28;20084;-32
2022/02/20 05:01:39;;;;;;;0.25;0.25;;;;;;;26.01;27.86;96695.31;5000514;28;20025;-34
2022/02/20 05:04:05;;;;;;;0.60;0.40;;;;;;;26.00;27.93;96693.63;5004440;28;20512;-37
2022/02/20 05:06:30;;;;;;;0.55;0.40;;;;;;;26.00;27.79;96694.44;5007941;28;20057;-31
2022/02/20 05:08:56;;;;;;;0.65;0.32;;;;;;;26.00;27.84;96694.44;4994586;28;20036;-30
2022/02/20 05:11:24;;;;;;;1.00;0.40;;;;;;;26.00;27.90;96694.44;5012823;28;20543;-31
2022/02/20 05:13:50;;;;;;;1.75;0.30;;;;;;;26.00;27.86;96693.63;5011736;28;21059;-29
2022/02/20 05:16:16;;;;;;;0.65;0.20;;;;;;;25.99;27.91;96692.75;5009886;28;20036;-30
2022/02/20 05:18:41;;;;;;;1.70;0.20;;;;;;;26.00;27.91;96688.38;5016754;28;20419;-31
2022/02/20 05:21:07;;;;;;;0.38;0.10;;;;;;;25.98;27.92;96685.81;5016307;28;20059;-32
2022/02/20 05:23:32;;;;;;;0.22;0.17;;;;;;;25.98;28.05;96691.06;5015909;28;20737;-32
2022/02/20 05:25:59;;;;;;;0.77;0.20;;;;;;;25.99;27.76;96695.38;5014478;28;20030;-34
2022/02/20 05:28:25;;;;;;;0.57;0.32;;;;;;;25.98;27.86;96691.06;5013578;28;20274;-33
2022/02/20 05:30:50;;;;;;;0.40;0.30;;;;;;;25.98;27.96;96685.81;5017335;28;20033;-31
2022/02/20 05:33:15;;;;;;;0.52;0.30;;;;;;;25.97;28.01;96689.34;5013989;28;20032;-35
2022/02/20 05:35:41;;;;;;;0.85;0.30;;;;;;;25.98;27.91;96690.22;5015209;28;20021;-34
2022/02/20 05:38:07;;;;;;;0.65;0.30;;;;;;;25.97;27.99;96684.09;5013949;28;20028;-30
2022/02/20 05:40:33;;;;;;;0.47;0.35;;;;;;;25.97;27.94;96689.34;5016840;28;20021;-34
2022/02/20 05:42:58;;;;;;;0.20;0.20;;;;;;;25.96;27.86;96692.94;5016664;28;20032;-29
2022/02/20 05:45:24;;;;;;;0.25;0.20;;;;;;;25.97;27.85;96694.59;5016571;28;20505;-31
2022/02/20 05:47:50;;;;;;;0.20;0.10;;;;;;;25.96;27.96;96692.94;5017980;28;20040;-32
2022/02/20 05:50:15;;;;;;;0.38;0.20;;;;;;;25.96;27.97;96692.94;5017111;28;20033;-31
2022/02/20 05:52:41;;;;;;;0.32;0.30;;;;;;;25.95;27.99;96692.09;5017773;28;20060;-31
2022/02/20 05:55:07;;;;;;;0.10;0.10;;;;;;;25.94;28.08;96692.19;5017410;28;20679;-32
2022/02/20 05:57:42;;;;;;;0.20;0.17;;;;;;;25.96;27.86;96692.94;5017603;28;20384;-31
2022/02/20 06:00:09;;;;;;;0.20;0.15;;;;;;;25.94;27.90;96685.13;5020384;28;20633;-30
2022/02/20 06:02:35;;;;;;;0.35;0.20;;;;;;;25.94;27.92;96685.13;5018851;28;20037;-31
2022/02/20 06:05:00;;;;;;;0.20;0.20;;;;;;;25.94;27.84;96684.31;5017420;28;20373;-33
2022/02/20 06:07:26;;;;;;;0.10;0.10;;;;;;;25.94;27.93;96685.13;5012756;28;20052;-34
2022/02/20 06:09:51;;;;;;;0.47;0.30;;;;;;;25.94;27.95;96679.03;5014406;28;20037;-32
2022/02/20 06:12:16;;;;;;;0.28;0.20;;;;;;;25.94;28.02;96679.03;5013598;28;20691;-31
2022/02/20 06:14:42;;;;;;;0.13;0.13;;;;;;;25.94;28.05;96679.03;5015860;28;20025;-35
2022/02/20 06:17:07;;;;;;;0.13;0.13;;;;;;;25.94;27.93;96686.94;5011696;28;20025;-30
2022/02/20 06:19:33;;;;;;;0.38;0.30;;;;;;;25.94;28.04;96694.81;5008088;28;20056;-31
2022/02/20 06:21:58;;;;;;;0.30;0.20;;;;;;;25.94;28.04;96697.44;5006516;28;20026;-31
2022/02/20 06:24:23;;;;;;;0.35;0.30;;;;;;;25.94;28.05;96697.44;5014351;28;20033;-30
2022/02/20 06:26:49;;;;;;;0.63;0.20;;;;;;;25.94;27.93;96694.81;5015538;28;20034;-30
2022/02/20 06:29:14;;;;;;;3.05;0.60;;;;;;;25.92;28.07;96687.00;5013002;28;20048;-32
2022/02/20 06:31:40;;;;;;;0.85;0.35;;;;;;;25.94;28.07;96700.06;5013398;28;20032;-29
2022/02/20 06:34:05;;;;;;;2.30;0.40;;;;;;;25.94;28.16;96705.31;5012764;28;20041;-30
2022/02/20 06:36:31;;;;;;;1.35;0.20;;;;;;;25.94;28.12;96705.31;5013174;28;20890;-30
2022/02/20 06:38:56;;;;;;;2.17;0.30;;;;;;;25.93;28.10;96707.06;5009244;28;20080;-32
2022/02/20 06:41:22;;;;;;;0.50;0.20;;;;;;;25.94;28.16;96713.19;5008346;28;20083;-32
2022/02/20 06:43:47;;;;;;;0.98;0.43;;;;;;;25.93;28.23;96717.56;5008412;28;20037;-31
2022/02/20 06:46:12;;;;;;;0.65;0.28;;;;;;;25.94;27.98;96715.81;5007735;28;20094;-32
2022/02/20 06:48:38;;;;;;;0.13;0.13;;;;;;;25.94;28.15;96715.81;5007965;28;20044;-32
2022/02/20 06:51:03;;;;;;;1.85;0.20;;;;;;;25.95;28.05;96728.00;5007055;28;20041;-32
2022/02/20 06:53:29;;;;;;;1.13;0.30;;;;;;;25.94;28.09;96726.31;5006058;28;20119;-31
2022/02/20 06:55:54;;;;;;;0.68;0.35;;;;;;;25.95;27.98;96722.75;5005313;28;20025;-32
2022/02/20 06:58:19;;;;;;;0.20;0.20;;;;;;;25.94;28.16;96726.31;5008520;28;20021;-34
2022/02/20 07:00:45;;;;;;;0.88;0.30;;;;;;;25.96;28.10;96724.44;5005742;28;20495;-31
2022/02/20 07:03:10;;;;;;;2.75;0.20;;;;;;;25.96;28.00;96732.31;5007107;28;20033;-35
2022/02/20 07:05:35;;;;;;;0.20;0.17;;;;;;;25.96;27.97;96740.19;5013540;28;20037;-32
2022/02/20 07:08:01;;;;;;;0.38;0.10;;;;;;;25.96;28.08;96740.19;5014239;28;20037;-33
2022/02/20 07:10:27;;;;;;;0.60;0.40;;;;;;;25.96;28.10;96741.03;5014930;28;20059;-34
2022/02/20 07:12:52;;;;;;;0.75;0.25;;;;;;;25.98;27.93;96742.72;5016469;28;20112;-31
2022/02/20 07:15:17;;;;;;;0.63;0.30;;;;;;;25.97;27.97;96752.38;5016529;28;20037;-31
2022/02/20 07:17:43;;;;;;;0.30;0.30;;;;;;;25.97;28.04;96744.50;5014076;28;20021;-31
2022/02/20 07:20:08;;;;;;;1.02;0.52;;;;;;;25.98;28.18;96746.22;5013634;28;20037;-33
2022/02/20 07:22:34;;;;;;;0.60;0.20;;;;;;;25.98;28.13;96732.22;5016346;28;20218;-35
2022/02/20 07:25:00;;;;;;;0.22;0.17;;;;;;;25.98;28.03;96735.72;5015985;28;20029;-30
2022/02/20 07:27:25;;;;;;;0.30;0.20;;;;;;;25.98;28.12;96738.34;5012972;28;20037;-30
2022/02/20 07:29:51;;;;;;;2.65;0.30;;;;;;;26.00;28.04;96738.25;5015298;28;20041;-30
2022/02/20 07:32:16;;;;;;;0.88;0.40;;;;;;;26.00;28.06;96731.22;5013949;28;20037;-36
2022/02/20 07:34:42;;;;;;;0.73;0.30;;;;;;;26.00;28.17;96735.63;5014002;28;20025;-30
2022/02/20 07:37:07;;;;;;;3.78;0.60;;;;;;;26.01;28.01;96729.44;5012378;28;20025;-33
2022/02/20 07:39:33;;;;;;;3.40;0.63;;;;;;;26.00;28.19;96733.84;5011348;28;20029;-31
2022/02/20 07:41:59;;;;;;;3.78;1.15;;;;;;;26.01;28.40;96732.91;5006043;28;20060;-30
2022/02/20 07:44:25;;;;;;;4.10;1.42;;;;;;;26.00;28.20;96725.97;5011760;28;20496;-34
2022/02/20 07:46:50;;;;;;;3.58;1.20;;;;;;;26.01;28.15;96722.41;5011922;28;20064;-31
2022/02/20 07:49:15;;;;;;;8.00;1.25;;;;;;;26.01;28.23;96722.41;5013100;28;21027;-37
2022/02/20 07:51:41;;;;;;;5.07;1.33;;;;;;;26.02;28.11;96713.59;5003145;28;20052;-31
2022/02/20 07:54:06;;;;;;;3.92;1.00;;;;;;;26.02;28.12;96724.09;5008337;28;20495;-32
2022/02/20 07:56:32;;;;;;;4.65;0.90;;;;;;;26.02;27.80;96718.00;5010646;28;20034;-32
2022/02/20 07:58:57;;;;;;;6.50;1.15;;;;;;;26.02;27.47;96715.38;5010910;28;20045;-32
2022/02/20 08:01:22;;;;;;;2.15;0.80;;;;;;;26.01;27.28;96713.69;5010841;28;20519;-32
2022/02/20 08:03:49;;;;;;;4.93;1.00;;;;;;;25.98;27.06;96711.22;5013097;28;20032;-31
2022/02/20 08:06:14;;;;;;;1.92;1.17;;;;;;;25.98;26.96;96706.84;5012179;28;20091;-32
2022/02/20 08:08:40;;;;;;;3.97;1.27;;;;;;;25.97;26.86;96713.00;5013709;28;20443;-34
2022/02/20 08:11:05;;;;;;;2.58;1.08;;;;;;;25.95;26.85;96701.75;5013272;28;20088;-31
2022/02/20 08:13:31;;;;;;;6.32;1.02;;;;;;;25.94;26.60;96705.31;5013775;28;20103;-37
2022/02/20 08:15:57;;;;;;;2.75;1.00;;;;;;;25.93;26.69;96708.88;4997392;28;20395;-31
2022/02/20 08:18:23;;;;;;;2.88;0.98;;;;;;;25.92;26.50;96717.66;5012307;28;20696;-31
2022/02/20 08:20:48;;;;;;;5.90;1.15;;;;;;;25.92;26.47;96715.03;5012355;28;20030;-32
2022/02/20 08:23:14;;;;;;;4.43;1.08;;;;;;;25.91;26.31;96710.72;5015453;28;20040;-31
2022/02/20 08:25:40;;;;;;;2.05;0.90;;;;;;;25.91;26.25;96705.47;5013295;28;20039;-32
2022/02/20 08:28:05;;;;;;;3.33;1.20;;;;;;;25.88;26.20;96708.25;5008505;28;20025;-34
2022/02/20 08:30:31;;;;;;;1.98;0.98;;;;;;;25.89;26.34;96702.09;5007955;28;20530;-32
2022/02/20 08:32:56;;;;;;;3.20;1.45;;;;;;;25.87;26.21;96714.44;5006596;28;20044;-31
2022/02/20 08:35:21;;;;;;;2.42;1.00;;;;;;;25.86;26.05;96704.88;5004914;28;20696;-32
2022/02/20 08:37:47;;;;;;;2.75;1.20;;;;;;;25.85;25.97;96711.06;5007118;28;20029;-32
2022/02/20 08:40:14;;;;;;;3.03;1.20;;;;;;;25.86;25.87;96718.00;5007187;28;20139;-32
2022/02/20 08:42:40;;;;;;;7.20;1.20;;;;;;;25.83;25.92;96721.66;5006673;28;20033;-32
2022/02/20 08:45:06;;;;;;;5.38;1.00;;;;;;;25.81;25.54;96732.22;4986143;28;20025;-33
2022/02/20 08:47:32;;;;;;;2.25;1.20;;;;;;;25.77;25.49;96735.94;5007113;28;20033;-29
2022/02/20 08:49:58;;;;;;;3.72;1.17;;;;;;;25.73;25.72;96737.03;5003095;28;20120;-32
2022/02/20 08:52:24;;;;;;;2.03;0.95;;;;;;;25.67;25.66;96734.75;5009875;28;20230;-31
2022/02/20 08:54:50;;;;;;;2.00;0.90;;;;;;;25.62;25.68;96734.16;5002591;28;20676;-31
2022/02/20 08:57:16;;;;;;;2.22;0.80;;;;;;;25.58;25.84;96725.56;4986906;28;20022;-35
2022/02/20 08:59:41;;;;;;;3.45;1.23;;;;;;;25.53;25.89;96733.69;5004429;28;20558;-31
2022/02/20 09:02:07;;;;;;;3.15;1.02;;;;;;;25.50;25.94;96733.84;5007192;28;20033;-31
2022/02/20 09:04:33;;;;;;;2.53;1.25;;;;;;;25.47;26.02;96739.22;5005758;28;20724;-34
2022/02/20 09:06:58;;;;;;;1.48;0.93;;;;;;;25.43;25.86;96740.31;5003027;28;20037;-31
2022/02/20 09:09:24;;;;;;;5.82;1.02;;;;;;;25.41;26.06;96755.31;5003676;28;20513;-35
2022/02/20 09:11:49;;;;;;;2.50;1.23;;;;;;;25.39;26.01;96747.50;5004464;28;20029;-34
2022/02/20 09:14:15;;;;;;;2.10;1.02;;;;;;;25.40;26.56;96746.56;5008827;28;20409;-30
2022/02/20 09:16:41;;;;;;;3.00;1.27;;;;;;;25.42;26.76;96749.13;5004456;28;20146;-34
2022/02/20 09:19:07;;;;;;;3.70;0.98;;;;;;;25.44;26.77;96755.16;5006044;28;20030;-33
2022/02/20 09:21:33;;;;;;;2.38;0.93;;;;;;;25.47;27.23;96748.91;5001856;28;20029;-35
2022/02/20 09:23:58;;;;;;;5.30;1.20;;;;;;;25.50;27.20;96749.56;4990877;28;20029;-33
2022/02/20 09:26:24;;;;;;;4.85;0.93;;;;;;;25.53;27.18;96752.03;5003064;28;20591;-32
2022/02/20 09:28:49;;;;;;;2.47;0.82;;;;;;;25.56;27.33;96746.66;5003734;28;20038;-34
2022/02/20 09:31:15;;;;;;;2.30;1.05;;;;;;;25.60;27.34;96731.59;5011397;28;20137;-31
2022/02/20 09:33:40;;;;;;;2.40;0.88;;;;;;;25.63;27.52;96735.84;5011527;28;20091;-31
2022/02/20 09:36:07;;;;;;;3.78;0.80;;;;;;;25.67;27.51;96730.31;5005545;28;20033;-34
2022/02/20 09:38:33;;;;;;;2.10;0.90;;;;;;;25.70;27.57;96724.94;5006358;28;20033;-33
2022/02/20 09:40:58;;;;;;;6.30;0.88;;;;;;;25.72;26.86;96724.84;5009983;28;20597;-33
2022/02/20 09:43:24;;;;;;;1.15;0.40;;;;;;;25.64;23.93;96729.66;4993306;28;20033;-35
2022/02/20 09:45:51;;;;;;;2.50;0.88;;;;;;;25.48;23.30;96725.22;5005640;28;20029;-32
2022/02/20 09:48:16;;;;;;;5.50;0.63;;;;;;;25.29;23.06;96717.44;4998517;28;20385;-33
2022/02/20 09:50:43;;;;;;;3.05;0.75;;;;;;;25.15;23.79;96712.91;5009912;28;20033;-32
2022/02/20 09:53:09;;;;;;;3.95;0.70;;;;;;;25.07;24.06;96712.47;5013815;28;20025;-31
2022/02/20 09:55:35;;;;;;;0.70;0.35;;;;;;;25.02;24.34;96703.06;4997027;28;20053;-33
2022/02/20 09:58:00;;;;;;;0.73;0.45;;;;;;;25.01;24.72;96696.13;5001179;28;20033;-33
2022/02/20 10:00:25;;;;;;;2.53;0.70;;;;;;;25.01;24.80;96697.88;5004621;28;20040;-30
2022/02/20 10:02:51;;;;;;;1.25;0.68;;;;;;;25.02;24.97;96702.22;5003946;28;20059;-32
2022/02/20 10:05:20;;;;;;;12.90;0.73;;;;;;;25.07;25.01;96709.84;5007452;28;20044;-33
2022/02/20 10:07:47;;;;;;;1.30;0.60;;;;;;;25.08;25.13;96690.53;5008307;28;20032;-32
2022/02/20 10:10:16;;;;;;;2.45;0.65;;;;;;;25.12;25.21;96695.56;5007791;28;20038;-33
2022/02/20 10:12:41;;;;;;;3.78;0.70;;;;;;;25.16;25.42;96693.63;5009328;28;20052;-33
2022/02/20 10:15:27;;;;;;;1.40;0.70;;;;;;;25.19;25.32;96698.72;5014962;28;20025;-32
2022/02/20 10:18:09;;;;;;;2.20;0.50;;;;;;;25.21;25.41;96691.63;5010360;28;20064;-34
2022/02/20 10:20:34;;;;;;;;;;;;;;;25.24;25.34;96696.69;5016063;28;20045;-31
2022/02/20 10:23:09;;;;;;;3.33;0.73;;;;;;;25.26;25.68;96700.09;5011868;28;19913;-31
2022/02/20 10:25:34;;;;;;;2.75;0.80;;;;;;;25.28;25.79;96705.28;5013016;28;20148;-31
2022/02/20 10:28:00;;;;;;;6.43;2.15;;;;;;;25.29;25.84;96688.59;5013294;28;20034;-32
2022/02/20 10:30:29;;;;;;;10.65;2.20;;;;;;;25.33;25.85;96699.78;4981807;28;20042;-32
2022/02/20 10:33:16;;;;;;;11.88;2.65;;;;;;;25.37;25.98;96709.16;5010076;28;20476;-32
2022/02/20 10:35:45;;;;;;;6.38;2.70;;;;;;;25.39;26.00;96704.69;5016461;28;20057;-32
2022/02/20 10:38:17;;;;;;;14.98;2.70;;;;;;;25.42;26.10;96680.91;5015177;28;20040;-30
2022/02/20 10:40:43;;;;;;;;;;;;;;;25.46;26.03;96674.56;5014223;28;20029;-31
2022/02/20 10:43:31;;;;;;;12.45;2.72;;;;;;;25.49;26.13;96674.44;5016086;28;19987;-32
2022/02/20 10:46:20;;;;;;;15.13;2.40;;;;;;;25.51;26.17;96672.56;5014530;28;20378;-32
2022/02/20 10:48:50;;;;;;;8.80;2.15;;;;;;;25.55;26.24;96652.25;5007733;28;20558;-35
2022/02/20 10:51:16;;;;;;;9.50;2.35;;;;;;;25.55;26.20;96650.47;5016080;28;20033;-32
2022/02/20 10:53:43;;;;;;;8.18;2.33;;;;;;;25.60;26.20;96641.53;4995110;28;20033;-33
2022/02/20 10:56:09;;;;;;;15.05;2.53;;;;;;;25.63;26.23;96644.00;5010917;28;20036;-32
2022/02/20 10:58:41;;;;;;;12.00;2.20;;;;;;;25.64;26.25;96628.16;5014646;28;20033;-33
2022/02/20 11:01:06;;;;;;;7.45;1.90;;;;;;;25.68;26.27;96634.94;5016650;28;20030;-31
2022/02/20 11:03:33;;;;;;;7.85;2.00;;;;;;;25.70;26.42;96619.94;5009419;28;20133;-32
2022/02/20 11:06:00;;;;;;;4.13;1.67;;;;;;;25.73;26.45;96624.16;4998750;28;20889;-32
2022/02/20 11:08:27;;;;;;;5.00;2.00;;;;;;;25.74;26.58;96636.34;4996013;28;20135;-31
2022/02/20 11:10:52;;;;;;;11.40;2.15;;;;;;;25.77;26.54;96633.56;5009965;28;20029;-33
2022/02/20 11:13:19;;;;;;;6.05;1.88;;;;;;;25.79;26.48;96629.09;5009890;28;20044;-32
2022/02/20 11:15:45;;;;;;;7.35;1.95;;;;;;;25.80;26.41;96620.28;5008938;28;20025;-31
2022/02/20 11:18:15;;;;;;;6.03;1.90;;;;;;;25.81;26.76;96627.22;5011858;28;20029;-32
2022/02/20 11:20:42;;;;;;;8.27;2.20;;;;;;;25.85;26.57;96627.06;5015023;28;20024;-33
2022/02/20 11:23:08;;;;;;;9.77;2.20;;;;;;;25.86;26.51;96624.34;5015545;28;20511;-33
2022/02/20 11:25:35;;;;;;;6.03;1.70;;;;;;;25.89;26.68;96634.66;5014057;28;20036;-31
2022/02/20 11:28:02;;;;;;;8.30;2.15;;;;;;;25.90;26.70;96630.28;5014323;28;20026;-32